createdAt,value
2022-09-28T00:01:21.806Z,10.18
2022-09-28T00:03:51.191Z,10.12
2022-09-28T00:06:21.070Z,10.15
2022-09-28T00:08:50.291Z,10.20
2022-09-28T00:11:20.937Z,10.15
2022-09-28T00:13:53.255Z,10.14
2022-09-28T00:16:23.432Z,10.11
2022-09-28T00:18:51.520Z,10.04
2022-09-28T00:21:24.787Z,10.16
2022-09-28T00:24:25.199Z,9.98
2022-09-28T00:26:56.857Z,10.04
2022-09-28T00:29:32.776Z,9.84
2022-09-28T00:32:03.181Z,10.04
2022-09-28T00:34:36.318Z,9.98
2022-09-28T00:37:05.361Z,9.90
2022-09-28T00:39:32.410Z,9.83
2022-09-28T00:41:59.907Z,9.91
2022-09-28T00:44:27.057Z,10.01
2022-09-28T00:47:02.265Z,10.00
2022-09-28T00:49:39.057Z,9.97
2022-09-28T00:52:07.716Z,9.96
2022-09-28T00:54:36.085Z,9.94
2022-09-28T00:57:04.412Z,9.78
2022-09-28T00:59:33.849Z,9.93
2022-09-28T01:02:02.140Z,9.30
2022-09-28T01:04:30.688Z,9.87
2022-09-28T01:06:59.277Z,9.81
2022-09-28T01:09:27.969Z,9.73
2022-09-28T01:11:55.363Z,9.50
2022-09-28T01:14:25.806Z,9.64
2022-09-28T01:17:12.755Z,9.84
2022-09-28T01:19:49.129Z,8.79
2022-09-28T01:22:34.378Z,9.77
2022-09-28T01:25:20.223Z,9.81
2022-09-28T01:28:11.486Z,9.33
2022-09-28T01:30:47.291Z,9.72
2022-09-28T01:33:25.062Z,9.11
2022-09-28T01:36:18.443Z,9.54
2022-09-28T01:39:12.586Z,9.70
2022-09-28T01:41:44.899Z,9.61
2022-09-28T01:44:16.352Z,9.51
2022-09-28T01:46:47.067Z,9.05
2022-09-28T01:49:22.991Z,9.56
2022-09-28T01:52:01.162Z,9.43
2022-09-28T01:55:13.347Z,9.72
2022-09-28T01:57:51.896Z,9.39
2022-09-28T02:00:21.282Z,9.58
2022-09-28T02:02:56.571Z,9.53
2022-09-28T02:05:37.350Z,9.63
2022-09-28T02:08:08.173Z,9.56
2022-09-28T02:11:03.621Z,9.70
2022-09-28T02:13:37.855Z,9.67
2022-09-28T02:16:14.141Z,9.17
2022-09-28T02:18:42.195Z,9.61
2022-09-28T02:21:39.026Z,9.65
2022-09-28T02:24:24.818Z,9.64
2022-09-28T02:26:55.899Z,9.55
2022-09-28T02:29:23.965Z,9.54
2022-09-28T02:31:52.282Z,9.42
2022-09-28T02:34:19.814Z,9.46
2022-09-28T02:36:47.330Z,9.39
2022-09-28T02:39:17.140Z,9.27
2022-09-28T02:42:05.534Z,9.64
2022-09-28T02:45:01.341Z,9.66
2022-09-28T02:47:48.702Z,9.67
2022-09-28T02:50:43.740Z,9.67
2022-09-28T02:53:29.401Z,9.64
2022-09-28T02:56:33.083Z,9.65
2022-09-28T02:59:16.568Z,9.66
2022-09-28T03:02:24.998Z,9.70
2022-09-28T03:05:19.838Z,9.61
2022-09-28T03:07:52.471Z,9.60
2022-09-28T03:10:32.293Z,9.60
2022-09-28T03:13:00.853Z,9.40
2022-09-28T03:15:30.780Z,9.53
2022-09-28T03:17:58.758Z,9.42
2022-09-28T03:20:27.489Z,9.49
2022-09-28T03:23:22.784Z,9.38
2022-09-28T03:25:42.035Z,9.71
2022-09-28T03:28:08.997Z,9.62
2022-09-28T03:30:39.520Z,9.57
2022-09-28T03:33:07.194Z,9.24
2022-09-28T03:35:34.362Z,9.58
2022-09-28T03:38:01.402Z,9.17
2022-09-28T03:40:30.825Z,9.33
2022-09-28T03:42:57.965Z,9.18
2022-09-28T03:45:25.546Z,9.03
2022-09-28T03:47:52.977Z,9.60
2022-09-28T03:50:19.932Z,9.65
2022-09-28T03:52:48.601Z,9.08
2022-09-28T03:55:15.947Z,9.48
2022-09-28T03:57:43.188Z,9.10
2022-09-28T04:00:11.468Z,9.62
2022-09-28T04:02:41.240Z,9.67
2022-09-28T04:05:09.440Z,9.68
2022-09-28T04:07:37.868Z,9.63
2022-09-28T04:10:05.174Z,9.60
2022-09-28T04:12:32.564Z,9.27
2022-09-28T04:14:59.777Z,9.73
2022-09-28T04:17:26.899Z,9.73
2022-09-28T04:19:54.843Z,9.75
2022-09-28T04:22:37.833Z,9.75
2022-09-28T04:25:05.307Z,9.77
2022-09-28T04:27:51.520Z,9.57
2022-09-28T04:30:19.404Z,9.74
2022-09-28T04:32:47.479Z,9.66
2022-09-28T04:35:15.150Z,9.78
2022-09-28T04:37:42.307Z,9.16
2022-09-28T04:40:09.697Z,9.65
2022-09-28T04:42:37.609Z,9.83
2022-09-28T04:45:05.002Z,9.84
2022-09-28T04:47:35.222Z,9.80
2022-09-28T04:50:30.289Z,9.89
2022-09-28T04:53:11.470Z,9.83
2022-09-28T04:55:39.766Z,9.87
2022-09-28T04:58:06.690Z,9.90
2022-09-28T05:00:35.684Z,9.02
2022-09-28T05:03:22.664Z,9.44
2022-09-28T05:06:16.733Z,9.99
2022-09-28T05:08:47.059Z,9.40
2022-09-28T05:11:15.059Z,9.96
2022-09-28T05:13:46.028Z,9.86
2022-09-28T05:16:16.460Z,9.53
2022-09-28T05:19:03.731Z,9.32
2022-09-28T05:21:31.091Z,9.70
2022-09-28T05:23:58.662Z,9.96
2022-09-28T05:26:26.475Z,9.21
2022-09-28T05:28:53.483Z,9.94
2022-09-28T05:31:39.356Z,9.98
2022-09-28T05:34:06.675Z,9.90
2022-09-28T05:36:34.011Z,9.98
2022-09-28T05:39:01.561Z,9.33
2022-09-28T05:41:28.998Z,10.01
2022-09-28T05:43:56.233Z,10.02
2022-09-28T05:46:23.943Z,10.01
2022-09-28T05:48:52.750Z,9.86
2022-09-28T05:51:20.126Z,10.08
2022-09-28T05:53:47.503Z,9.45
2022-09-28T05:56:16.039Z,10.06
2022-09-28T05:58:44.713Z,9.97
2022-09-28T06:01:13.631Z,10.13
2022-09-28T06:03:40.637Z,9.67
2022-09-28T06:06:07.602Z,9.47
2022-09-28T06:08:34.562Z,10.08
2022-09-28T06:11:21.824Z,10.02
2022-09-28T06:13:53.630Z,10.12
2022-09-28T06:16:20.888Z,10.07
2022-09-28T06:18:48.553Z,10.03
2022-09-28T06:21:44.808Z,10.13
2022-09-28T06:24:11.954Z,10.01
2022-09-28T06:26:38.942Z,10.23
2022-09-28T06:29:07.756Z,10.18
2022-09-28T06:31:34.968Z,10.27
2022-09-28T06:34:02.298Z,10.25
2022-09-28T06:36:31.383Z,9.99
2022-09-28T06:38:58.812Z,10.32
2022-09-28T06:41:26.010Z,10.33
2022-09-28T06:43:53.248Z,10.29
2022-09-28T06:46:39.328Z,10.27
2022-09-28T06:49:27.952Z,10.39
2022-09-28T06:52:15.267Z,10.38
2022-09-28T06:55:00.875Z,10.44
2022-09-28T06:57:42.886Z,10.53
2022-09-28T07:00:10.703Z,10.58
2022-09-28T07:02:38.150Z,10.57
2022-09-28T07:05:15.915Z,10.61
2022-09-28T07:08:14.992Z,10.58
2022-09-28T07:11:07.133Z,10.66
2022-09-28T07:14:01.353Z,10.55
2022-09-28T07:16:51.811Z,10.24
2022-09-28T07:19:17.259Z,10.70
2022-09-28T07:21:47.327Z,10.57
2022-09-28T07:24:17.803Z,10.69
2022-09-28T07:27:05.728Z,10.67
2022-09-28T07:29:43.320Z,10.66
2022-09-28T07:32:34.710Z,10.62
2022-09-28T07:35:20.953Z,10.83
2022-09-28T07:38:02.605Z,9.91
2022-09-28T07:40:50.778Z,10.84
2022-09-28T07:43:22.037Z,10.61
2022-09-28T07:45:54.292Z,10.83
2022-09-28T07:48:22.578Z,10.63
2022-09-28T07:50:53.608Z,10.71
2022-09-28T07:53:46.048Z,10.80
2022-09-28T07:56:36.295Z,10.86
2022-09-28T07:59:18.537Z,10.71
2022-09-28T08:02:24.532Z,10.77
2022-09-28T08:04:52.222Z,10.33
2022-09-28T08:07:23.512Z,10.89
2022-09-28T08:09:57.223Z,10.84
2022-09-28T08:12:26.974Z,10.94
2022-09-28T08:15:17.193Z,10.93
2022-09-28T08:18:05.471Z,10.94
2022-09-28T08:20:51.986Z,11.05
2022-09-28T08:23:20.969Z,11.11
2022-09-28T08:25:49.308Z,11.06
2022-09-28T08:28:17.852Z,11.09
2022-09-28T08:30:48.868Z,11.04
2022-09-28T08:33:35.130Z,10.98
2022-09-28T08:36:34.608Z,10.93
2022-09-28T08:39:01.583Z,11.11
2022-09-28T08:42:08.980Z,10.79
2022-09-28T08:44:49.459Z,11.21
2022-09-28T08:47:57.794Z,11.30
2022-09-28T08:50:34.116Z,11.32
2022-09-28T08:53:38.747Z,11.29
2022-09-28T08:56:28.060Z,10.87
2022-09-28T08:59:00.197Z,11.30
2022-09-28T09:01:35.146Z,10.98
2022-09-28T09:04:07.376Z,11.09
2022-09-28T09:07:29.107Z,11.34
2022-09-28T09:10:30.247Z,11.38
2022-09-28T09:13:16.927Z,11.45
2022-09-28T09:16:18.955Z,11.48
2022-09-28T09:19:22.887Z,11.07
2022-09-28T09:22:43.047Z,11.69
2022-09-28T09:25:47.367Z,11.63
2022-09-28T09:28:52.412Z,11.76
2022-09-28T09:31:44.988Z,11.78
2022-09-28T09:34:54.241Z,11.92
2022-09-28T09:37:50.038Z,11.43
2022-09-28T09:41:02.005Z,11.88
2022-09-28T09:44:02.842Z,11.85
2022-09-28T09:47:10.465Z,11.84
2022-09-28T09:49:51.726Z,11.96
2022-09-28T09:52:37.773Z,11.91
2022-09-28T09:55:29.859Z,12.13
2022-09-28T09:58:22.005Z,12.08
2022-09-28T10:01:04.764Z,12.15
2022-09-28T10:03:52.911Z,12.19
2022-09-28T10:06:30.382Z,12.22
2022-09-28T10:09:10.588Z,12.24
2022-09-28T10:11:44.569Z,12.14
2022-09-28T10:14:22.330Z,12.31
2022-09-28T10:17:05.517Z,12.25
2022-09-28T10:20:01.709Z,12.12
2022-09-28T10:22:58.244Z,12.26
2022-09-28T10:25:26.512Z,12.02
2022-09-28T10:27:55.976Z,12.23
2022-09-28T10:30:25.448Z,12.22
2022-09-28T10:32:59.484Z,12.29
2022-09-28T10:35:42.388Z,12.08
2022-09-28T10:38:17.678Z,12.24
2022-09-28T10:40:50.865Z,12.16
2022-09-28T10:44:11.007Z,12.17
2022-09-28T10:46:59.355Z,12.03
2022-09-28T10:49:28.701Z,12.04
2022-09-28T10:51:58.347Z,11.51
2022-09-28T10:54:31.544Z,12.10
2022-09-28T10:57:01.421Z,12.10
2022-09-28T10:59:46.905Z,12.11
2022-09-28T11:02:38.780Z,12.10
2022-09-28T11:05:21.775Z,12.21
2022-09-28T11:07:49.922Z,12.17
2022-09-28T11:10:26.245Z,12.13
2022-09-28T11:12:58.117Z,11.57
2022-09-28T11:15:31.686Z,12.07
2022-09-28T11:18:34.496Z,12.21
2022-09-28T11:21:27.343Z,12.20
2022-09-28T11:24:19.237Z,11.72
2022-09-28T11:26:56.658Z,12.14
2022-09-28T11:29:46.167Z,12.13
2022-09-28T11:32:16.499Z,12.11
2022-09-28T11:35:35.669Z,12.07
2022-09-28T11:38:15.831Z,12.16
2022-09-28T11:41:28.708Z,12.14
2022-09-28T11:44:32.569Z,12.18
2022-09-28T11:47:25.674Z,12.13
2022-09-28T11:50:24.094Z,12.23
2022-09-28T11:53:17.977Z,12.15
2022-09-28T11:55:50.691Z,12.11
2022-09-28T11:58:33.726Z,12.25
2022-09-28T12:01:08.639Z,12.12
2022-09-28T12:04:04.156Z,12.22
2022-09-28T12:07:15.906Z,12.28
2022-09-28T12:10:10.567Z,12.05
2022-09-28T12:12:57.485Z,11.78
2022-09-28T12:15:38.223Z,12.19
2022-09-28T12:18:39.345Z,12.19
2022-09-28T12:21:27.086Z,12.23
2022-09-28T12:24:00.895Z,12.28
2022-09-28T12:27:00.839Z,12.08
2022-09-28T12:29:43.214Z,12.26
2022-09-28T12:32:28.507Z,12.28
2022-09-28T12:34:56.620Z,12.11
2022-09-28T12:37:37.563Z,11.74
2022-09-28T12:40:16.717Z,12.33
2022-09-28T12:42:46.695Z,11.83
2022-09-28T12:45:38.779Z,12.41
2022-09-28T12:48:30.201Z,12.39
2022-09-28T12:51:12.272Z,12.35
2022-09-28T12:53:57.853Z,12.31
2022-09-28T12:56:40.846Z,12.39
2022-09-28T12:59:38.167Z,12.44
2022-09-28T13:02:42.766Z,12.43
2022-09-28T13:05:28.546Z,12.41
2022-09-28T13:08:05.152Z,12.34
2022-09-28T13:10:47.451Z,12.42
2022-09-28T13:13:41.144Z,12.46
2022-09-28T13:16:21.625Z,12.43
2022-09-28T13:19:00.155Z,12.42
2022-09-28T13:21:52.460Z,12.36
2022-09-28T13:24:32.868Z,12.39
2022-09-28T13:27:10.470Z,12.29
2022-09-28T13:32:12.881Z,12.18
2022-09-28T13:34:40.265Z,11.85
2022-09-28T13:37:20.492Z,12.31
2022-09-28T13:39:52.874Z,12.30
2022-09-28T13:42:25.856Z,11.73
2022-09-28T13:45:14.395Z,12.39
2022-09-28T13:47:52.628Z,12.32
2022-09-28T13:50:28.885Z,12.31
2022-09-28T13:52:58.690Z,12.31
2022-09-28T13:55:50.907Z,12.32
2022-09-28T13:58:27.758Z,12.14
2022-09-28T14:01:34.139Z,12.21
2022-09-28T14:04:16.341Z,12.33
2022-09-28T14:06:51.425Z,12.25
2022-09-28T14:09:55.852Z,12.19
2022-09-28T14:12:34.606Z,12.38
2022-09-28T14:15:03.356Z,12.25
2022-09-28T14:17:51.186Z,12.25
2022-09-28T14:20:22.567Z,12.29
2022-09-28T14:23:25.368Z,12.39
2022-09-28T14:26:31.999Z,12.41
2022-09-28T14:29:28.933Z,12.43
2022-09-28T14:31:58.421Z,12.38
2022-09-28T14:34:38.275Z,12.12
2022-09-28T14:37:38.953Z,12.41
2022-09-28T14:40:38.233Z,12.36
2022-09-28T14:43:48.355Z,12.36
2022-09-28T14:46:15.466Z,12.29
2022-09-28T14:49:04.085Z,12.27
2022-09-28T14:51:31.179Z,12.25
2022-09-28T14:54:03.209Z,12.20
2022-09-28T14:56:38.327Z,12.11
2022-09-28T14:59:06.990Z,12.38
2022-09-28T15:01:36.433Z,12.33
2022-09-28T15:04:09.025Z,11.58
2022-09-28T15:06:47.311Z,12.08
2022-09-28T15:09:34.707Z,12.35
2022-09-28T15:12:10.006Z,11.90
2022-09-28T15:14:46.320Z,12.34
2022-09-28T15:17:19.173Z,12.22
2022-09-28T15:20:01.628Z,12.38
2022-09-28T15:22:30.485Z,12.26
2022-09-28T15:25:02.476Z,12.38
2022-09-28T15:27:38.128Z,12.37
2022-09-28T15:30:25.916Z,12.42
2022-09-28T15:32:57.037Z,12.38
2022-09-28T15:35:26.707Z,12.37
2022-09-28T15:37:55.412Z,12.27
2022-09-28T15:40:32.899Z,12.37
2022-09-28T15:43:00.410Z,12.36
2022-09-28T15:45:37.431Z,12.36
2022-09-28T15:48:33.320Z,12.49
2022-09-28T15:51:12.401Z,11.86
2022-09-28T15:54:01.127Z,12.28
2022-09-28T15:56:29.057Z,12.26
2022-09-28T15:59:25.410Z,12.22
2022-09-28T16:02:22.999Z,12.35
2022-09-28T16:04:53.193Z,12.13
2022-09-28T16:07:21.251Z,12.19
2022-09-28T16:09:56.897Z,12.29
2022-09-28T16:12:26.412Z,12.28
2022-09-28T16:14:56.179Z,11.19
2022-09-28T16:17:35.842Z,12.22
2022-09-28T16:20:19.066Z,12.17
2022-09-28T16:22:46.450Z,11.59
2022-09-28T16:25:20.102Z,12.16
2022-09-28T16:27:47.149Z,12.17
2022-09-28T16:30:24.323Z,12.12
2022-09-28T16:32:57.257Z,11.76
2022-09-28T16:35:27.043Z,11.74
2022-09-28T16:37:59.916Z,12.18
2022-09-28T16:40:27.847Z,11.92
2022-09-28T16:43:00.171Z,12.15
2022-09-28T16:45:28.861Z,12.16
2022-09-28T16:47:57.764Z,11.85
2022-09-28T16:50:25.489Z,12.00
2022-09-28T16:53:31.862Z,12.18
2022-09-28T16:56:00.187Z,12.02
2022-09-28T16:58:28.962Z,12.08
2022-09-28T17:00:56.619Z,11.90
2022-09-28T17:03:24.669Z,11.86
2022-09-28T17:05:52.824Z,11.92
2022-09-28T17:08:22.398Z,11.43
2022-09-28T17:11:22.724Z,11.63
2022-09-28T17:13:49.268Z,12.01
2022-09-28T17:16:32.502Z,11.91
2022-09-28T17:19:28.768Z,11.62
2022-09-28T17:21:55.838Z,11.53
2022-09-28T17:24:22.782Z,11.59
2022-09-28T17:26:51.242Z,11.94
2022-09-28T17:29:18.771Z,11.80
2022-09-28T17:31:47.327Z,11.85
2022-09-28T17:34:16.509Z,11.96
2022-09-28T17:36:44.914Z,11.86
2022-09-28T17:39:14.991Z,11.91
2022-09-28T17:41:41.986Z,11.87
2022-09-28T17:44:09.322Z,11.83
2022-09-28T17:46:40.996Z,11.72
2022-09-28T17:49:11.730Z,11.85
2022-09-28T17:51:38.920Z,11.23
2022-09-28T17:54:08.437Z,11.90
2022-09-28T17:56:36.975Z,11.95
2022-09-28T17:59:07.563Z,10.67
2022-09-28T18:01:37.925Z,11.81
2022-09-28T18:04:07.742Z,11.88
2022-09-28T18:06:35.200Z,11.91
2022-09-28T18:09:05.552Z,11.74
2022-09-28T18:11:34.293Z,11.54
2022-09-28T18:14:01.422Z,11.47
2022-09-28T18:16:29.124Z,11.81
2022-09-28T18:18:58.486Z,11.86
2022-09-28T18:21:25.708Z,11.90
2022-09-28T18:23:52.928Z,11.75
2022-09-28T18:26:20.096Z,11.16
2022-09-28T18:28:47.526Z,11.85
2022-09-28T18:31:15.814Z,11.85
2022-09-28T18:33:43.431Z,11.81
2022-09-28T18:36:10.710Z,11.07
2022-09-28T18:38:38.703Z,11.77
2022-09-28T18:41:17.207Z,11.70
2022-09-28T18:43:55.652Z,11.53
2022-09-28T18:46:25.707Z,11.67
2022-09-28T18:48:52.996Z,11.73
2022-09-28T18:51:20.757Z,11.21
2022-09-28T18:53:48.249Z,11.73
2022-09-28T18:56:21.248Z,11.68
2022-09-28T18:58:51.492Z,11.78
2022-09-28T19:01:36.265Z,11.76
2022-09-28T19:04:06.887Z,11.88
2022-09-28T19:06:34.939Z,11.77
2022-09-28T19:09:02.524Z,11.86
2022-09-28T19:11:29.697Z,11.93
2022-09-28T19:13:57.080Z,11.86
2022-09-28T19:16:29.189Z,11.74
2022-09-28T19:19:01.092Z,11.90
2022-09-28T19:21:28.167Z,11.31
2022-09-28T19:23:55.765Z,11.69
2022-09-28T19:26:26.985Z,11.46
2022-09-28T19:28:56.665Z,11.82
2022-09-28T19:31:24.544Z,11.40
2022-09-28T19:33:51.686Z,11.29
2022-09-28T19:36:21.975Z,11.60
2022-09-28T19:38:49.605Z,11.86
2022-09-28T19:41:39.553Z,11.87
2022-09-28T19:44:15.691Z,11.83
2022-09-28T19:46:43.097Z,11.74
2022-09-28T19:49:13.779Z,11.91
2022-09-28T19:52:01.605Z,11.76
2022-09-28T19:54:36.292Z,11.87
2022-09-28T19:57:09.027Z,11.78
2022-09-28T19:59:37.405Z,11.47
2022-09-28T20:02:06.206Z,11.95
2022-09-28T20:04:33.263Z,11.91
2022-09-28T20:07:00.332Z,11.81
2022-09-28T20:09:27.306Z,11.75
2022-09-28T20:11:54.439Z,11.68
2022-09-28T20:14:23.435Z,11.85
2022-09-28T20:16:54.152Z,11.40
2022-09-28T20:19:23.159Z,11.84
2022-09-28T20:21:50.872Z,11.77
2022-09-28T20:24:18.374Z,11.42
2022-09-28T20:26:46.218Z,11.60
2022-09-28T20:29:13.489Z,11.71
2022-09-28T20:31:40.695Z,11.69
2022-09-28T20:34:08.144Z,11.37
2022-09-28T20:36:35.347Z,11.85
2022-09-28T20:39:02.961Z,11.69
2022-09-28T20:41:36.912Z,11.65
2022-09-28T20:44:06.514Z,11.86
2022-09-28T20:46:37.165Z,11.83
2022-09-28T20:49:05.094Z,11.72
2022-09-28T20:51:32.434Z,11.76
2022-09-28T20:53:59.947Z,11.64
2022-09-28T20:56:40.168Z,11.76
2022-09-28T20:59:08.727Z,11.79
2022-09-28T21:01:36.106Z,11.76
2022-09-28T21:04:05.118Z,11.18
2022-09-28T21:06:35.918Z,11.77
2022-09-28T21:09:04.122Z,11.69
2022-09-28T21:11:32.193Z,11.75
2022-09-28T21:14:01.846Z,11.60
2022-09-28T21:16:31.571Z,11.70
2022-09-28T21:18:58.863Z,11.25
2022-09-28T21:21:26.692Z,11.77
2022-09-28T21:23:55.064Z,11.63
2022-09-28T21:26:25.207Z,11.65
2022-09-28T21:28:53.989Z,11.62
2022-09-28T21:31:27.743Z,11.57
2022-09-28T21:33:56.446Z,11.51
2022-09-28T21:36:23.394Z,11.55
2022-09-28T21:38:50.544Z,11.60
2022-09-28T21:41:17.601Z,11.59
2022-09-28T21:43:45.941Z,11.55
2022-09-28T21:46:13.205Z,11.59
2022-09-28T21:48:40.518Z,11.48
2022-09-28T21:51:09.993Z,11.12
2022-09-28T21:53:38.404Z,11.68
2022-09-28T21:56:09.689Z,11.57
2022-09-28T21:58:36.986Z,11.53
2022-09-28T22:01:08.219Z,11.59
2022-09-28T22:03:37.223Z,11.50
2022-09-28T22:06:05.501Z,11.42
2022-09-28T22:08:33.459Z,11.56
2022-09-28T22:11:12.793Z,11.59
2022-09-28T22:13:42.915Z,11.64
2022-09-28T22:16:11.045Z,11.61
2022-09-28T22:18:38.293Z,11.06
2022-09-28T22:21:14.407Z,11.57
2022-09-28T22:23:41.757Z,11.64
2022-09-28T22:26:11.802Z,11.67
2022-09-28T22:28:40.149Z,11.67
2022-09-28T22:31:07.198Z,11.67
2022-09-28T22:33:34.265Z,11.66
2022-09-28T22:36:01.424Z,11.54
2022-09-28T22:38:32.086Z,11.21
2022-09-28T22:40:59.337Z,11.54
2022-09-28T22:43:27.010Z,11.61
2022-09-28T22:46:08.557Z,11.66
2022-09-28T22:48:35.917Z,11.72
2022-09-28T22:51:04.762Z,11.71
2022-09-28T22:53:31.909Z,11.74
2022-09-28T22:56:01.554Z,11.30
2022-09-28T22:58:28.533Z,11.75
2022-09-28T23:00:57.230Z,11.52
2022-09-28T23:03:24.303Z,11.58
2022-09-28T23:05:55.598Z,11.63
2022-09-28T23:08:23.911Z,11.65
2022-09-28T23:10:51.673Z,11.65
2022-09-28T23:13:18.883Z,11.26
2022-09-28T23:15:57.078Z,11.64
2022-09-28T23:18:24.837Z,11.61
2022-09-28T23:21:00.113Z,11.58
2022-09-28T23:23:27.349Z,11.58
2022-09-28T23:25:55.591Z,11.52
2022-09-28T23:28:24.495Z,11.52
2022-09-28T23:30:52.425Z,11.51
2022-09-28T23:33:21.102Z,11.49
2022-09-28T23:35:48.345Z,11.48
2022-09-28T23:38:18.367Z,11.39
2022-09-28T23:40:46.967Z,11.50
2022-09-28T23:43:14.949Z,10.96
2022-09-28T23:45:45.700Z,11.09
2022-09-28T23:48:15.095Z,11.12
2022-09-28T23:50:43.434Z,11.46
2022-09-28T23:53:12.393Z,10.98
2022-09-28T23:55:39.439Z,11.42
2022-09-28T23:58:06.407Z,11.31
